Station History

Weather Underground - logo

Station Historical Data
 
Daily Summary for February 22, 2019 Units:  Both    English   Metric
« Previous Day
Next Day »
Daily Weekly Monthly Yearly Custom
  Current: High: Low: Average:
Temperature: 33.5 °F /  0.8 °C 39.3 °F /  4.1 °C 33.5 °F /  0.8 °C 36.7 °F /  2.6 °C
Dew Point: 30.9 °F /  -0.6 °C 36.0 °F /  2.2 °C 30.9 °F /  -0.6 °C 34.2 °F /  1.2 °C
Humidity: 90 % 93 % 88 % 91 %
Wind Speed: 0.0 mph /  0 km/h 1.2 mph /  1.9 km/h - 0 mph /  0 km/h
Wind Gust: 0.0 mph /  0 km/h 0.1 mph /  0.2 km/h - -
Wind:Calm - - East
Pressure: 30.01 in /  1016.1 hPa 30.01 in /  1016.1 hPa 29.89 in /  1012.1 hPa -
Precipitation: 0.00 in /  0 mm      
Historical Graphs
 
 
Tabular Data for February 22, 2019
Time Temperature Dew Point Pressure Wind Wind Speed Wind Gust Humidity Rainfall Rate (Hourly)
00:04 39.3 °F /  4.1 °C 36.0 °F /  2.2 °C 29.89 in /  1012.1 hPa Calm     88 % 0.00 in /  0 mm
00:09 39.1 °F /  3.9 °C 35.8 °F /  2.1 °C 29.89 in /  1012.1 hPa Calm     88 % 0.00 in /  0 mm
00:14 38.9 °F /  3.8 °C 35.6 °F /  2 °C 29.89 in /  1012.1 hPa Calm     88 % 0.00 in /  0 mm
00:19 38.5 °F /  3.6 °C 35.3 °F /  1.8 °C 29.89 in /  1012.1 hPa Calm     88 % 0.00 in /  0 mm
00:24 38.2 °F /  3.4 °C 35.2 °F /  1.8 °C 29.90 in /  1012.4 hPa Calm     89 % 0.00 in /  0 mm
00:29 37.9 °F /  3.3 °C 34.9 °F /  1.6 °C 29.90 in /  1012.4 hPa Calm     89 % 0.00 in /  0 mm
00:34 37.8 °F /  3.2 °C 34.8 °F /  1.6 °C 29.90 in /  1012.4 hPa Calm     89 % 0.00 in /  0 mm
00:39 37.6 °F /  3.1 °C 34.9 °F /  1.6 °C 29.91 in /  1012.8 hPa Calm     90 % 0.00 in /  0 mm
00:44 37.4 °F /  3 °C 34.7 °F /  1.5 °C 29.91 in /  1012.8 hPa Calm     90 % 0.00 in /  0 mm
00:49 37.5 °F /  3.1 °C 34.8 °F /  1.6 °C 29.91 in /  1012.8 hPa Calm     90 % 0.00 in /  0 mm
00:54 37.5 °F /  3.1 °C 34.8 °F /  1.6 °C 29.91 in /  1012.8 hPa Calm     90 % 0.00 in /  0 mm
00:59 37.5 °F /  3.1 °C 35.1 °F /  1.7 °C 29.91 in /  1012.8 hPa Calm     91 % 0.00 in /  0 mm
01:04 37.5 °F /  3.1 °C 34.8 °F /  1.6 °C 29.92 in /  1013.1 hPa Calm     90 % 0.00 in /  0 mm
01:09 37.5 °F /  3.1 °C 34.8 °F /  1.6 °C 29.92 in /  1013.1 hPa Calm     90 % 0.00 in /  0 mm
01:14 37.7 °F /  3.2 °C 35.0 °F /  1.7 °C 29.92 in /  1013.1 hPa Calm     90 % 0.00 in /  0 mm
01:19 37.9 °F /  3.3 °C 35.2 °F /  1.8 °C 29.92 in /  1013.1 hPa Calm     90 % 0.00 in /  0 mm
01:24 38.3 °F /  3.5 °C 35.3 °F /  1.8 °C 29.92 in /  1013.1 hPa Calm     89 % 0.00 in /  0 mm
01:29 38.7 °F /  3.7 °C 35.5 °F /  1.9 °C 29.93 in /  1013.4 hPa Calm     88 % 0.00 in /  0 mm
01:34 38.5 °F /  3.6 °C 35.3 °F /  1.8 °C 29.92 in /  1013.1 hPa Calm     88 % 0.00 in /  0 mm
01:39 38.4 °F /  3.6 °C 35.2 °F /  1.8 °C 29.92 in /  1013.1 hPa Calm     88 % 0.00 in /  0 mm
01:44 38.3 °F /  3.5 °C 35.1 °F /  1.7 °C 29.93 in /  1013.4 hPa Calm     88 % 0.00 in /  0 mm
01:49 38.0 °F /  3.3 °C 34.8 °F /  1.6 °C 29.93 in /  1013.4 hPa Calm     88 % 0.00 in /  0 mm
01:54 37.9 °F /  3.3 °C 35.2 °F /  1.8 °C 29.93 in /  1013.4 hPa Calm     90 % 0.00 in /  0 mm
01:59 37.8 °F /  3.2 °C 35.1 °F /  1.7 °C 29.93 in /  1013.4 hPa Calm     90 % 0.00 in /  0 mm
02:04 37.8 °F /  3.2 °C 35.1 °F /  1.7 °C 29.94 in /  1013.8 hPa Calm     90 % 0.00 in /  0 mm
02:09 37.7 °F /  3.2 °C 35.3 °F /  1.8 °C 29.94 in /  1013.8 hPa Calm     91 % 0.00 in /  0 mm
02:14 37.7 °F /  3.2 °C 35.3 °F /  1.8 °C 29.93 in /  1013.4 hPa Calm     91 % 0.00 in /  0 mm
02:19 37.6 °F /  3.1 °C 35.2 °F /  1.8 °C 29.94 in /  1013.8 hPa Calm     91 % 0.00 in /  0 mm
02:24 37.4 °F /  3 °C 35.0 °F /  1.7 °C 29.94 in /  1013.8 hPa Calm     91 % 0.00 in /  0 mm
02:29 37.2 °F /  2.9 °C 34.8 °F /  1.6 °C 29.94 in /  1013.8 hPa Calm     91 % 0.00 in /  0 mm
02:34 36.9 °F /  2.7 °C 34.5 °F /  1.4 °C 29.94 in /  1013.8 hPa Calm     91 % 0.00 in /  0 mm
02:39 36.7 °F /  2.6 °C 34.3 °F /  1.3 °C 29.94 in /  1013.8 hPa Calm     91 % 0.00 in /  0 mm
02:44 36.5 °F /  2.5 °C 34.1 °F /  1.2 °C 29.94 in /  1013.8 hPa Calm     91 % 0.00 in /  0 mm
02:49 36.3 °F /  2.4 °C 33.9 °F /  1.1 °C 29.95 in /  1014.1 hPa Calm     91 % 0.00 in /  0 mm
02:54 36.0 °F /  2.2 °C 33.6 °F /  0.9 °C 29.94 in /  1013.8 hPa Calm     91 % 0.00 in /  0 mm
02:59 35.8 °F /  2.1 °C 33.7 °F /  0.9 °C 29.95 in /  1014.1 hPa Calm     92 % 0.00 in /  0 mm
03:04 35.8 °F /  2.1 °C 33.7 °F /  0.9 °C 29.95 in /  1014.1 hPa Calm     92 % 0.00 in /  0 mm
03:09 35.8 °F /  2.1 °C 33.7 °F /  0.9 °C 29.95 in /  1014.1 hPa Calm     92 % 0.00 in /  0 mm
03:14 35.7 °F /  2.1 °C 33.9 °F /  1.1 °C 29.95 in /  1014.1 hPa Calm     93 % 0.00 in /  0 mm
03:19 35.5 °F /  1.9 °C 33.4 °F /  0.8 °C 29.95 in /  1014.1 hPa Calm     92 % 0.00 in /  0 mm
03:24 35.4 °F /  1.9 °C 33.3 °F /  0.7 °C 29.95 in /  1014.1 hPa Calm     92 % 0.00 in /  0 mm
03:29 35.2 °F /  1.8 °C 33.1 °F /  0.6 °C 29.96 in /  1014.4 hPa Calm     92 % 0.00 in /  0 mm
03:34 35.0 °F /  1.7 °C 32.9 °F /  0.5 °C 29.96 in /  1014.4 hPa Calm     92 % 0.00 in /  0 mm
03:39 35.3 °F /  1.8 °C 33.5 °F /  0.8 °C 29.96 in /  1014.4 hPa Calm     93 % 0.00 in /  0 mm
03:44 35.5 °F /  1.9 °C 33.7 °F /  0.9 °C 29.96 in /  1014.4 hPa Calm     93 % 0.00 in /  0 mm
03:49 35.4 °F /  1.9 °C 33.6 °F /  0.9 °C 29.96 in /  1014.4 hPa Calm     93 % 0.00 in /  0 mm
03:54 35.4 °F /  1.9 °C 33.6 °F /  0.9 °C 29.96 in /  1014.4 hPa Calm     93 % 0.00 in /  0 mm
03:59 35.7 °F /  2.1 °C 33.9 °F /  1.1 °C 29.97 in /  1014.8 hPa East 1.2 mph /  1.9 km/h   93 % 0.00 in /  0 mm
04:04 35.8 °F /  2.1 °C 34.0 °F /  1.1 °C 29.97 in /  1014.8 hPa Calm     93 % 0.00 in /  0 mm
04:09 35.9 °F /  2.2 °C 34.1 °F /  1.2 °C 29.97 in /  1014.8 hPa Calm     93 % 0.00 in /  0 mm
04:14 35.9 °F /  2.2 °C 33.8 °F /  1 °C 29.97 in /  1014.8 hPa Calm     92 % 0.00 in /  0 mm
04:19 35.9 °F /  2.2 °C 33.8 °F /  1 °C 29.98 in /  1015.1 hPa Calm   0.1 mph /  0.2 km/h 92 % 0.00 in /  0 mm
04:24 36.0 °F /  2.2 °C 33.9 °F /  1.1 °C 29.98 in /  1015.1 hPa Calm     92 % 0.00 in /  0 mm
04:29 36.1 °F /  2.3 °C 34.0 °F /  1.1 °C 29.98 in /  1015.1 hPa Calm     92 % 0.00 in /  0 mm
04:34 36.0 °F /  2.2 °C 33.6 °F /  0.9 °C 29.98 in /  1015.1 hPa Calm     91 % 0.00 in /  0 mm
04:39 35.7 °F /  2.1 °C 33.3 °F /  0.7 °C 29.99 in /  1015.5 hPa Calm     91 % 0.00 in /  0 mm
04:44 35.4 °F /  1.9 °C 33.0 °F /  0.6 °C 29.99 in /  1015.5 hPa Calm     91 % 0.00 in /  0 mm
04:49 35.4 °F /  1.9 °C 33.0 °F /  0.6 °C 29.99 in /  1015.5 hPa Calm     91 % 0.00 in /  0 mm
04:54 35.8 °F /  2.1 °C 33.4 °F /  0.8 °C 30.00 in /  1015.8 hPa East 1.2 mph /  1.9 km/h   91 % 0.00 in /  0 mm
04:59 36.0 °F /  2.2 °C 33.6 °F /  0.9 °C 30.00 in /  1015.8 hPa Calm     91 % 0.00 in /  0 mm
05:04 35.6 °F /  2 °C 32.7 °F /  0.4 °C 30.00 in /  1015.8 hPa Calm     89 % 0.00 in /  0 mm
05:09 34.6 °F /  1.4 °C 31.4 °F /  -0.3 °C 30.00 in /  1015.8 hPa Calm     88 % 0.00 in /  0 mm
05:14 33.9 °F /  1.1 °C 31.0 °F /  -0.6 °C 30.01 in /  1016.1 hPa Calm     89 % 0.00 in /  0 mm
05:19 33.5 °F /  0.8 °C 30.9 °F /  -0.6 °C 30.01 in /  1016.1 hPa Calm     90 % 0.00 in /  0 mm
Park Place, Exeter, Tulare County, California, USA
Compliments of Weather Underground - 1.5 mb